Urb Pedro T Labayen, Puerto Rico
Current Conditions -  °F | °C
As of 5:50 PM on Monday 26 Jan 2015 (Local Time) from TJBQ Reporting Station
Scattered Clouds Scattered Clouds  
Wind Chill: 79°   Ceiling: Unl
Heat Index: 82°   Visibility: 10mi
Dew Point: 72°   Wind: 0mph
Humidity: 78%   Direction: NA
Pressure: 29.97"   Gusts: NA
Location:  18.3413°N, 66.991°W
Report Text: TJBQ 262150Z 00000KT 10SM SCT040 26/22 A2997 RMK RWY08 ATIS N
Loading
Personal Weather Stations






























Interactive Weather Map New forecast layout! Learn more

10-Day Weather Forecast

Advertisements
Track Severe Weather on mobile